Flight Track Log - Related Links

Times and Time Zones

All times are in EDT time to prevent confusion due to time zone crossing. See the SKW7375 flight status page for this flight to view local times or setup timezone preferences in your user account.

Time Position Orientation Groundspeed Altitude Reporting Facility
EDT Latitude Longitude Course Direction KTS MPH feet Rate Location/Type
Sat 08:30:19 PM 44.8833 -93.1833 339° North 151 174 1,900  Level Minneapolis TRACON
Sat 08:30:54 PM 44.8764 -93.1394 103° East 183 211 3,100 2,750 Climbing Minneapolis Center
Sat 08:31:55 PM 44.8917 -93.0556 76° East 247 284 6,300 3,197 Climbing Minneapolis Center
Sat 08:32:56 PM 44.9672 -93.0442 North 277 319 9,600 2,732 Climbing Minneapolis Center
Sat 08:33:00 PM 45.2174 -93.4027 343° North  Level FlightAware Approximate
Sat 08:33:58 PM 45.0494 -93.0422 North 297 342 11,900  Level Minneapolis Center
Sat 08:34:00 PM 45.3059 -93.4476 339° North  Level FlightAware Approximate
Sat 08:34:59 PM 45.1508 -93.0969 339° North 365 420 12,000  Level Minneapolis Center
Sat 08:35:00 PM 45.3934 -93.4963 339° North  Level FlightAware Approximate
Sat 08:36:00 PM 45.2378 -93.1458 338° Northwest 365 420 12,000  Level Minneapolis Center
Sat 08:37:02 PM 45.3297 -93.1975 338° Northwest 359 413 12,000  Level Minneapolis Center
Sat 08:38:03 PM 45.4372 -93.2686 335° Northwest 355 409 12,000  Level Minneapolis Center
Sat 08:39:05 PM 45.5172 -93.3358 330° Northwest 337 388 12,000  Level Minneapolis Center
Sat 08:40:06 PM 45.5797 -93.3856 331° Northwest 326 375 12,000  Level Minneapolis Center
Sat 08:41:07 PM 45.6725 -93.4619 330° Northwest 322 371 12,000  Level Minneapolis Center
Sat 08:42:09 PM 45.7481 -93.5250 330° Northwest 318 366 12,000  Level Minneapolis Center
Sat 08:43:10 PM 45.8247 -93.5881 330° Northwest 319 367 12,000 -49 Level Minneapolis Center
Sat 08:44:12 PM 45.8994 -93.6497 330° Northwest 313 360 11,900  Descending Minneapolis Center
Sat 08:45:13 PM 45.9694 -93.7092 329° Northwest 300 345 12,000 49 Climbing Minneapolis Center
Sat 08:46:15 PM 46.0514 -93.7772 330° Northwest 289 333 12,000 -341 Level Minneapolis Center
Sat 08:47:16 PM 46.1183 -93.8325 330° Northwest 282 325 11,300 -1,122 Descending Minneapolis Center
Sat 08:48:18 PM 46.1808 -93.8836 330° Northwest 268 308 9,700 -1,610 Descending Minneapolis Center
Sat 08:49:19 PM 46.2433 -93.9369 329° Northwest 270 311 8,000 -1,672 Descending Minneapolis Center
Sat 08:50:20 PM 46.2944 -94.0031 318° Northwest 249 287 6,300 -1,610 Descending Minneapolis Center
Sat 08:51:22 PM 46.3144 -94.0733 292° West 211 243 4,700 -1,548 Descending Minneapolis Center

Login

Don't have an account? Register now (free) for customized features, flight alerts, and more!